Gimhae International Airport
RKPK : rendu visible

Aérodrome :











RETROUVEZ-NOUS SUR...

 
LOGIN :

S'inscrire | Disclaimer

   EN    FR    IT 

 









Légende :    VFR   VFR Marginal   IFR   IFR Intensif   IFR Très Intensif
Visi : 
Plafond : 
>= 8 km
>= 3000ft
5 à 8 km
1000 à 3000 ft
1500m à 5 km
500 à 1000 ft
800 à 1500m
200 à 500 ft
< 800m
< 200 ft
Symboles :   Orages  Brouillard  Fortes neiges  Fortes précipitations  Vent > 20 kt






- Altitude de l'aérodrome : 6 ft
- Code IATA : PUS


RKPK - Gimhae International

DERNIER METAR :
  • 051800Z 34005KT CAVOK 03/M03 Q1028

METARs EXPIRÉS :
  • 051700Z 36004KT CAVOK 02/M03 Q1028
  • 051600Z 36003KT CAVOK 02/M03 Q1028

TAF TAF RKPK
Valide du 05 à 18h jusqu'au 07 à 00h UTC


051700Z 0518/0624 33006KT CAVOK TN00/0521Z TX11/0606Z
FIR RKRR / Asie



MET'MAP, la Météo Aéronautique d'un coup d'oeil ! - Copyright ORBIFLY Décembre 2007 - Disclaimer

ORBIFLY MET'MAP TEAM :

Programmation & Développement : Alexandra Zaïnal
Sur une idée originale de : Baudouin d'Aumeries
Assistance à la programmation : Marc-Olivier Méhu
Soutien technique & logistique : Manuel Goepfert

Contact : metmap@orbifly.com




SOURCES & CREDITS :

   NOAA       Earth
Advisory